Fermer
METAR de LFBA [Agen]
LFBA 241500Z AUTO 12008KT CAVOK 20/08 Q1011 NOSIG
Agen : LFBA 241500Z AUTO 12008KT CAVOK 20/08 Q1011 NOSIG | Bergerac : LFBE 241500Z AUTO 08010KT CAVOK 21/07 Q1011 NOSIG | Bordeaux Merignac : LFBD 241500Z AUTO 11011KT CAVOK 21/07 Q1010 NOSIG
METAR LFBA
Bienvenue sur le site de l'Aéroclub de Gascogne
 Faire un vol d'initiation, un baptême de l'air, apprendre à piloter, se perfectionner.

Vous êtes sur le marmandais et vous souhaitez apprendre à piloter, faire un vol d'initiation, un baptême de l'air ? Vous trouverez sur notre site toutes les informations nécessaires.

Si malgré cela vous avez besoin de plus de renseignements, contactez-nous.

Suivez-nous sur facebook !

L'Aéroclub de Gascogne est une association loi 1901 reconnue d'utilité publique.
Son fonctionnement est assuré par des bénévoles.

Nous sommes un organisme de formation approuvé pour vous former au pilotage.

 
 Vous souhaitez nous rendre visite en avion ? Cliquez ici.